createdAt,value
2023-11-10T00:00:14.711Z,26.50
2023-11-10T00:02:46.058Z,26.50
2023-11-10T00:05:16.287Z,26.50
2023-11-10T00:07:49.371Z,26.50
2023-11-10T00:10:20.121Z,26.50
2023-11-10T00:12:50.246Z,26.60
2023-11-10T00:15:20.437Z,26.60
2023-11-10T00:17:50.194Z,26.60
2023-11-10T00:20:20.426Z,26.60
2023-11-10T00:22:50.720Z,26.70
2023-11-10T00:25:20.988Z,26.80
2023-11-10T00:27:50.726Z,26.80
2023-11-10T00:30:21.763Z,26.90
2023-11-10T00:32:53.742Z,27.00
2023-11-10T00:35:24.201Z,27.00
2023-11-10T00:37:54.139Z,27.00
2023-11-10T00:40:24.458Z,27.10
2023-11-10T00:42:54.528Z,27.20
2023-11-10T00:45:24.555Z,27.20
2023-11-10T00:47:54.411Z,27.30
2023-11-10T00:50:24.555Z,27.30
2023-11-10T00:52:54.329Z,27.40
2023-11-10T00:55:24.377Z,27.60
2023-11-10T00:57:55.755Z,27.60
2023-11-10T01:00:25.976Z,27.60
2023-11-10T01:02:57.558Z,27.80
2023-11-10T01:05:27.896Z,27.90
2023-11-10T01:07:57.686Z,27.90
2023-11-10T01:10:27.849Z,28.00
2023-11-10T01:12:57.577Z,28.00
2023-11-10T01:15:28.657Z,27.90
2023-11-10T01:17:58.750Z,27.90
2023-11-10T01:20:28.544Z,28.00
2023-11-10T01:22:59.187Z,28.30
2023-11-10T01:25:29.552Z,28.40
2023-11-10T01:27:59.748Z,28.50
2023-11-10T01:30:29.644Z,28.70
2023-11-10T01:33:00.758Z,28.70
2023-11-10T01:35:31.441Z,28.70
2023-11-10T01:38:01.213Z,28.70
2023-11-10T01:40:34.115Z,28.80
2023-11-10T01:43:16.725Z,28.90
2023-11-10T01:45:47.259Z,29.00
2023-11-10T01:48:18.225Z,29.10
2023-11-10T01:50:48.251Z,29.10
2023-11-10T01:53:18.148Z,29.10
2023-11-10T01:55:50.585Z,29.20
2023-11-10T01:58:21.321Z,29.40
2023-11-10T02:00:52.122Z,29.30
2023-11-10T02:03:24.297Z,29.40
2023-11-10T02:05:54.772Z,29.40
2023-11-10T02:08:25.190Z,29.60
2023-11-10T02:10:54.899Z,29.60
2023-11-10T02:13:24.937Z,29.80
2023-11-10T02:15:55.381Z,29.80
2023-11-10T02:18:25.417Z,29.90
2023-11-10T02:20:55.271Z,30.00
2023-11-10T02:23:27.358Z,30.20
2023-11-10T02:25:57.452Z,30.30
2023-11-10T02:28:31.265Z,30.30
2023-11-10T02:31:01.433Z,30.20
2023-11-10T02:33:31.214Z,30.30
2023-11-10T02:36:01.431Z,30.40
2023-11-10T02:38:31.516Z,30.40
2023-11-10T02:41:01.702Z,30.50
2023-11-10T02:43:31.465Z,30.60
2023-11-10T02:46:01.872Z,30.60
2023-11-10T02:48:32.172Z,30.60
2023-11-10T02:51:02.383Z,30.90
2023-11-10T02:53:32.544Z,30.80
2023-11-10T02:56:03.929Z,30.90
2023-11-10T02:58:36.434Z,30.90
2023-11-10T03:01:07.193Z,31.10
2023-11-10T03:03:37.192Z,31.10
2023-11-10T03:06:07.417Z,31.10
2023-11-10T03:08:37.192Z,31.30
2023-11-10T03:11:09.041Z,31.50
2023-11-10T03:13:39.102Z,31.60
2023-11-10T03:16:09.694Z,31.60
2023-11-10T03:18:39.824Z,31.70
2023-11-10T03:21:09.661Z,31.70
2023-11-10T03:23:40.026Z,31.70
2023-11-10T03:26:09.800Z,32.00
2023-11-10T03:28:40.092Z,31.80
2023-11-10T03:31:10.772Z,31.80
2023-11-10T03:33:40.882Z,31.80
2023-11-10T03:36:12.313Z,31.90
2023-11-10T03:38:42.360Z,32.00
2023-11-10T03:41:12.883Z,32.20
2023-11-10T03:43:43.334Z,32.10
2023-11-10T03:46:13.829Z,32.30
2023-11-10T03:48:44.095Z,32.00
2023-11-10T03:51:14.629Z,32.20
2023-11-10T03:53:44.835Z,32.30
2023-11-10T03:56:14.633Z,32.30
2023-11-10T03:58:45.435Z,32.50
2023-11-10T04:01:15.980Z,32.50
2023-11-10T04:03:46.418Z,32.60
2023-11-10T04:06:16.456Z,32.70
2023-11-10T04:08:46.823Z,32.70
2023-11-10T04:11:17.213Z,32.70
2023-11-10T04:13:47.584Z,32.70
2023-11-10T04:16:27.246Z,32.90
2023-11-10T04:18:57.866Z,32.90
2023-11-10T04:21:34.664Z,33.10
2023-11-10T04:24:06.540Z,33.20
2023-11-10T04:26:36.515Z,32.90
2023-11-10T04:29:11.579Z,32.60
2023-11-10T04:31:43.232Z,32.80
2023-11-10T04:34:13.272Z,32.90
2023-11-10T04:36:45.868Z,33.20
2023-11-10T04:39:17.772Z,33.20
2023-11-10T04:41:48.719Z,33.50
2023-11-10T04:44:19.272Z,33.60
2023-11-10T04:46:49.099Z,33.60
2023-11-10T04:49:19.134Z,33.90
2023-11-10T04:51:48.996Z,33.90
2023-11-10T04:54:19.686Z,33.80
2023-11-10T04:56:49.674Z,34.00
2023-11-10T04:59:19.459Z,34.10
2023-11-10T05:01:50.300Z,33.90
2023-11-10T05:04:20.208Z,34.00
2023-11-10T05:06:50.502Z,34.20
2023-11-10T05:09:20.429Z,34.20
2023-11-10T05:11:50.391Z,34.00
2023-11-10T05:14:20.286Z,33.70
2023-11-10T05:16:50.395Z,33.50
2023-11-10T05:19:20.342Z,33.40
2023-11-10T05:21:50.353Z,33.20
2023-11-10T05:24:22.108Z,32.80
2023-11-10T05:26:52.146Z,32.80
2023-11-10T05:29:23.268Z,33.10
2023-11-10T05:31:55.860Z,33.60
2023-11-10T05:34:25.936Z,33.90
2023-11-10T05:36:56.300Z,33.80
2023-11-10T05:39:27.637Z,33.90
2023-11-10T05:41:57.354Z,34.30
2023-11-10T05:44:27.513Z,34.20
2023-11-10T05:46:57.306Z,34.20
2023-11-10T05:49:27.212Z,33.90
2023-11-10T05:51:56.978Z,33.80
2023-11-10T05:54:27.069Z,33.70
2023-11-10T05:56:56.786Z,33.50
2023-11-10T05:59:27.822Z,33.40
2023-11-10T06:01:58.812Z,33.40
2023-11-10T06:04:34.716Z,33.60
2023-11-10T06:07:06.749Z,33.50
2023-11-10T06:09:38.289Z,33.60
2023-11-10T06:12:10.333Z,33.50
2023-11-10T06:14:40.916Z,33.50
2023-11-10T06:17:10.839Z,33.30
2023-11-10T06:19:40.518Z,33.30
2023-11-10T06:22:10.645Z,33.40
2023-11-10T06:24:42.286Z,33.90
2023-11-10T06:27:12.620Z,34.20
2023-11-10T06:29:43.045Z,34.50
2023-11-10T06:32:13.837Z,34.70
2023-11-10T06:34:43.963Z,34.90
2023-11-10T06:37:15.101Z,34.70
2023-11-10T06:39:45.368Z,35.00
2023-11-10T06:42:15.302Z,35.30
2023-11-10T06:44:48.646Z,35.20
2023-11-10T06:47:18.892Z,35.10
2023-11-10T06:49:48.756Z,35.00
2023-11-10T06:52:19.208Z,35.00
2023-11-10T06:54:49.029Z,35.20
2023-11-10T06:57:19.603Z,35.50
2023-11-10T06:59:49.350Z,35.60
2023-11-10T07:02:21.359Z,35.60
2023-11-10T07:04:52.518Z,35.60
2023-11-10T07:07:22.317Z,35.70
2023-11-10T07:09:52.671Z,35.90
2023-11-10T07:12:22.915Z,35.80
2023-11-10T07:14:53.615Z,35.70
2023-11-10T07:17:23.520Z,35.60
2023-11-10T07:19:56.358Z,35.70
2023-11-10T07:22:26.795Z,35.70
2023-11-10T07:24:57.937Z,35.50
2023-11-10T07:27:28.705Z,35.50
2023-11-10T07:29:58.825Z,35.20
2023-11-10T07:32:28.631Z,35.10
2023-11-10T07:35:02.377Z,35.00
2023-11-10T07:37:37.595Z,34.80
2023-11-10T07:40:08.631Z,34.50
2023-11-10T07:42:41.423Z,34.70
2023-11-10T07:45:19.070Z,35.00
2023-11-10T07:47:51.692Z,35.00
2023-11-10T07:50:23.050Z,35.40
2023-11-10T07:52:53.068Z,35.50
2023-11-10T07:55:22.901Z,35.50
2023-11-10T07:57:53.298Z,35.30
2023-11-10T08:00:23.282Z,35.40
2023-11-10T08:02:56.437Z,35.10
2023-11-10T08:05:27.130Z,34.90
2023-11-10T08:07:57.971Z,35.20
2023-11-10T08:10:27.977Z,35.10
2023-11-10T08:12:57.802Z,35.10
2023-11-10T08:15:28.187Z,35.00
2023-11-10T08:17:58.311Z,35.00
2023-11-10T08:20:29.077Z,35.20
2023-11-10T08:23:02.545Z,35.50
2023-11-10T08:25:32.984Z,35.40
2023-11-10T08:28:02.981Z,35.40
2023-11-10T08:30:34.636Z,35.30
2023-11-10T08:33:04.715Z,35.30
2023-11-10T08:35:34.550Z,34.80
2023-11-10T08:38:06.105Z,34.50
2023-11-10T08:40:36.027Z,34.50
2023-11-10T08:43:06.069Z,34.50
2023-11-10T08:45:36.301Z,34.40
2023-11-10T08:48:06.799Z,34.20
2023-11-10T08:50:41.620Z,34.10
2023-11-10T08:53:11.863Z,34.00
2023-11-10T08:55:44.687Z,33.80
2023-11-10T08:58:16.607Z,33.90
2023-11-10T09:00:46.746Z,33.90
2023-11-10T09:03:19.851Z,34.00
2023-11-10T09:05:50.130Z,34.10
2023-11-10T09:08:19.886Z,34.00
2023-11-10T09:10:53.213Z,33.90
2023-11-10T09:13:23.412Z,33.70
2023-11-10T09:15:59.606Z,33.90
2023-11-10T09:18:32.695Z,33.90
2023-11-10T09:21:02.490Z,33.80
2023-11-10T09:23:32.497Z,33.70
2023-11-10T09:26:02.675Z,33.60
2023-11-10T09:28:34.579Z,33.60
2023-11-10T09:31:04.585Z,33.70
2023-11-10T09:33:34.466Z,33.50
2023-11-10T09:36:05.408Z,33.60
2023-11-10T09:38:36.633Z,33.50
2023-11-10T09:41:07.240Z,33.50
2023-11-10T09:43:38.169Z,33.50
2023-11-10T09:46:12.323Z,33.40
2023-11-10T09:48:46.129Z,33.40
2023-11-10T09:51:17.127Z,33.40
2023-11-10T09:53:51.979Z,33.50
2023-11-10T09:56:23.044Z,33.50
2023-11-10T09:58:54.336Z,33.50
2023-11-10T10:01:24.953Z,33.40
2023-11-10T10:03:54.903Z,33.30
2023-11-10T10:06:28.497Z,33.20
2023-11-10T10:08:58.821Z,33.10
2023-11-10T10:11:28.697Z,33.10
2023-11-10T10:13:59.588Z,33.00
2023-11-10T10:16:30.342Z,33.00
2023-11-10T10:19:00.977Z,32.90
2023-11-10T10:21:43.680Z,32.90
2023-11-10T10:24:17.504Z,33.00
2023-11-10T10:26:47.651Z,32.80
2023-11-10T10:29:20.969Z,32.70
2023-11-10T10:31:57.546Z,32.70
2023-11-10T10:34:29.915Z,32.70
2023-11-10T10:37:00.160Z,32.50
2023-11-10T10:39:32.597Z,32.50
2023-11-10T10:42:05.012Z,32.60
2023-11-10T10:44:35.376Z,32.70
2023-11-10T10:47:06.053Z,32.60
2023-11-10T10:49:37.407Z,32.50
2023-11-10T10:52:10.287Z,32.50
2023-11-10T10:54:41.029Z,32.50
2023-11-10T10:57:12.636Z,32.40
2023-11-10T10:59:45.549Z,32.30
2023-11-10T11:02:16.515Z,32.10
2023-11-10T11:05:02.605Z,32.00
2023-11-10T11:08:13.154Z,32.00
2023-11-10T11:11:11.194Z,31.80
2023-11-10T11:14:20.471Z,31.70
2023-11-10T11:17:23.880Z,31.70
2023-11-10T11:19:54.127Z,31.70
2023-11-10T11:22:24.392Z,31.60
2023-11-10T11:24:54.588Z,31.60
2023-11-10T11:27:25.986Z,31.70
2023-11-10T11:29:59.880Z,31.70
2023-11-10T11:32:32.921Z,31.70
2023-11-10T11:35:02.979Z,31.70
2023-11-10T11:37:33.995Z,31.70
2023-11-10T11:40:05.961Z,31.60
2023-11-10T11:42:43.321Z,31.50
2023-11-10T11:45:18.198Z,31.20
2023-11-10T11:47:52.340Z,30.90
2023-11-10T11:50:22.577Z,31.20
2023-11-10T11:52:52.322Z,31.30
2023-11-10T11:55:24.502Z,31.30
2023-11-10T11:57:54.811Z,31.40
2023-11-10T12:00:25.668Z,31.40
2023-11-10T12:02:59.026Z,31.30
2023-11-10T12:05:32.817Z,30.70
2023-11-10T12:08:03.737Z,30.60
2023-11-10T12:10:36.849Z,31.00
2023-11-10T12:13:09.303Z,31.10
2023-11-10T12:15:40.237Z,31.20
2023-11-10T12:18:12.497Z,31.00
2023-11-10T12:20:42.712Z,30.80
2023-11-10T12:23:13.680Z,30.80
2023-11-10T12:25:45.237Z,30.70
2023-11-10T12:28:16.066Z,30.50
2023-11-10T12:30:46.400Z,30.40
2023-11-10T12:33:18.798Z,30.50
2023-11-10T12:35:52.199Z,30.70
2023-11-10T12:38:24.563Z,30.80
2023-11-10T12:40:59.108Z,30.90
2023-11-10T12:43:29.289Z,30.80
2023-11-10T12:45:59.234Z,30.70
2023-11-10T12:48:32.051Z,30.70
2023-11-10T12:51:05.615Z,30.60
2023-11-10T12:53:35.783Z,30.50
2023-11-10T12:56:06.114Z,30.60
2023-11-10T12:58:36.393Z,30.50
2023-11-10T13:01:09.336Z,30.10
2023-11-10T13:03:40.140Z,29.80
2023-11-10T13:06:11.228Z,29.70
2023-11-10T13:08:41.374Z,29.80
2023-11-10T13:11:11.193Z,29.80
2023-11-10T13:13:41.994Z,29.60
2023-11-10T13:16:15.340Z,29.70
2023-11-10T13:18:45.601Z,29.80
2023-11-10T13:21:15.466Z,29.70
2023-11-10T13:23:45.647Z,29.90
2023-11-10T13:26:15.475Z,29.90
2023-11-10T13:28:46.526Z,29.90
2023-11-10T13:31:25.674Z,29.60
2023-11-10T13:33:59.795Z,29.90
2023-11-10T13:36:30.150Z,30.10
2023-11-10T13:39:00.088Z,30.10
2023-11-10T13:41:36.893Z,29.80
2023-11-10T13:44:13.908Z,29.70
2023-11-10T13:46:43.943Z,29.70
2023-11-10T13:49:14.760Z,29.90
2023-11-10T13:51:45.122Z,30.00
2023-11-10T13:54:15.081Z,30.10
2023-11-10T13:56:45.132Z,30.10
2023-11-10T13:59:15.010Z,30.10
2023-11-10T14:01:45.309Z,30.00
2023-11-10T14:04:15.225Z,29.50
2023-11-10T14:06:45.651Z,29.80
2023-11-10T14:09:15.770Z,29.90
2023-11-10T14:11:45.779Z,29.90
2023-11-10T14:14:15.754Z,29.90
2023-11-10T14:16:49.314Z,29.90
2023-11-10T14:19:20.471Z,30.00
2023-11-10T14:21:50.239Z,30.10
2023-11-10T14:24:20.562Z,29.90
2023-11-10T14:26:50.399Z,29.60
2023-11-10T14:29:20.809Z,29.50
2023-11-10T14:31:51.004Z,29.40
2023-11-10T14:34:21.524Z,29.40
2023-11-10T14:36:51.569Z,29.30
2023-11-10T14:39:24.002Z,29.20
2023-11-10T14:41:54.200Z,29.00
2023-11-10T14:44:25.623Z,29.00
2023-11-10T14:46:55.619Z,29.10
2023-11-10T14:49:26.520Z,29.20
2023-11-10T14:52:05.447Z,29.40
2023-11-10T14:54:36.646Z,28.90
2023-11-10T14:57:07.110Z,29.10
2023-11-10T14:59:36.860Z,29.00
2023-11-10T15:02:09.279Z,29.10
2023-11-10T15:04:44.666Z,29.20
2023-11-10T15:07:15.694Z,29.20
2023-11-10T15:09:47.653Z,29.20
2023-11-10T15:12:18.040Z,29.10
2023-11-10T15:14:48.092Z,29.20
2023-11-10T15:17:17.993Z,29.40
2023-11-10T15:19:47.772Z,29.00
2023-11-10T15:22:18.238Z,28.80
2023-11-10T15:24:48.067Z,28.60
2023-11-10T15:27:19.483Z,28.90
2023-11-10T15:29:50.062Z,28.80
2023-11-10T15:32:22.905Z,28.60
2023-11-10T15:34:57.739Z,28.60
2023-11-10T15:37:29.062Z,29.00
2023-11-10T15:40:02.278Z,29.10
2023-11-10T15:42:37.267Z,29.20
2023-11-10T15:45:10.689Z,29.20
2023-11-10T15:47:46.639Z,29.20
2023-11-10T15:50:19.245Z,29.00
2023-11-10T15:52:49.205Z,28.70
2023-11-10T15:55:18.985Z,28.80
2023-11-10T15:57:51.163Z,28.60
2023-11-10T16:00:25.318Z,28.40
2023-11-10T16:02:55.886Z,28.30
2023-11-10T16:05:26.015Z,28.40
2023-11-10T16:07:56.210Z,28.60
2023-11-10T16:10:26.068Z,28.60
2023-11-10T16:12:56.149Z,28.50
2023-11-10T16:15:28.902Z,28.60
2023-11-10T16:18:00.340Z,28.80
2023-11-10T16:20:31.283Z,28.90
2023-11-10T16:23:01.453Z,28.90
2023-11-10T16:25:32.813Z,28.90
2023-11-10T16:28:03.015Z,28.80
2023-11-10T16:30:37.117Z,28.80
2023-11-10T16:33:07.469Z,28.80
2023-11-10T16:35:37.360Z,28.70
2023-11-10T16:38:07.320Z,28.80
2023-11-10T16:40:37.121Z,28.90
2023-11-10T16:43:07.454Z,28.90
2023-11-10T16:45:38.459Z,28.80
2023-11-10T16:48:10.869Z,28.80
2023-11-10T16:50:42.155Z,28.50
2023-11-10T16:53:12.549Z,28.50
2023-11-10T16:55:42.394Z,28.40
2023-11-10T16:58:12.425Z,28.30
2023-11-10T17:00:43.360Z,28.20
2023-11-10T17:03:13.539Z,28.10
2023-11-10T17:05:48.300Z,28.10
2023-11-10T17:08:19.022Z,28.20
2023-11-10T17:10:49.258Z,28.20
2023-11-10T17:13:19.399Z,28.20
2023-11-10T17:15:51.328Z,28.10
2023-11-10T17:18:21.605Z,28.10
2023-11-10T17:20:51.394Z,28.20
2023-11-10T17:23:22.728Z,28.20
2023-11-10T17:25:52.724Z,28.20
2023-11-10T17:28:22.598Z,28.30
2023-11-10T17:30:53.426Z,28.40
2023-11-10T17:33:23.850Z,28.40
2023-11-10T17:35:54.161Z,28.20
2023-11-10T17:38:25.264Z,28.30
2023-11-10T17:40:56.174Z,28.40
2023-11-10T17:43:26.270Z,28.40
2023-11-10T17:45:56.098Z,28.40
2023-11-10T17:48:26.075Z,28.50
2023-11-10T17:50:57.058Z,28.40
2023-11-10T17:53:28.569Z,28.40
2023-11-10T17:55:58.700Z,28.50
2023-11-10T17:58:28.933Z,28.20
2023-11-10T18:01:00.796Z,28.20
2023-11-10T18:03:30.771Z,28.20
2023-11-10T18:06:01.152Z,28.20
2023-11-10T18:08:32.495Z,28.20
2023-11-10T18:11:02.342Z,28.20
2023-11-10T18:13:32.261Z,28.20
2023-11-10T18:16:02.753Z,27.80
2023-11-10T18:18:32.633Z,27.70
2023-11-10T18:21:02.785Z,27.60
2023-11-10T18:23:35.574Z,27.60
2023-11-10T18:26:05.466Z,27.70
2023-11-10T18:28:36.632Z,27.90
2023-11-10T18:31:08.056Z,28.10
2023-11-10T18:33:38.044Z,28.10
2023-11-10T18:36:08.723Z,28.10
2023-11-10T18:38:38.642Z,28.10
2023-11-10T18:41:08.351Z,28.20
2023-11-10T18:43:44.868Z,28.10
2023-11-10T18:46:16.975Z,27.70
2023-11-10T18:48:47.171Z,27.70
2023-11-10T18:51:17.329Z,27.50
2023-11-10T18:53:47.341Z,27.50
2023-11-10T18:56:17.155Z,27.60
2023-11-10T18:58:47.245Z,27.70
2023-11-10T19:01:17.084Z,27.80
2023-11-10T19:03:47.256Z,27.90
2023-11-10T19:06:20.306Z,28.00
2023-11-10T19:08:50.532Z,28.00
2023-11-10T19:11:20.412Z,28.10
2023-11-10T19:13:51.543Z,28.00
2023-11-10T19:16:22.092Z,28.00
2023-11-10T19:18:51.953Z,28.00
2023-11-10T19:21:21.927Z,27.90
2023-11-10T19:23:51.672Z,27.70
2023-11-10T19:26:22.021Z,27.60
2023-11-10T19:28:55.080Z,27.60
2023-11-10T19:31:25.708Z,27.70
2023-11-10T19:33:55.740Z,27.70
2023-11-10T19:36:25.623Z,27.80
2023-11-10T19:38:55.817Z,27.80
2023-11-10T19:41:25.605Z,27.80
2023-11-10T19:43:55.860Z,27.40
2023-11-10T19:46:25.762Z,27.20
2023-11-10T19:48:56.200Z,27.20
2023-11-10T19:56:31.425Z,27.50
2023-11-10T20:01:36.720Z,27.20
2023-11-10T20:04:06.989Z,27.10
2023-11-10T20:06:36.800Z,27.10
2023-11-10T20:09:07.335Z,27.20
2023-11-10T20:11:37.345Z,27.40
2023-11-10T20:14:07.863Z,27.50
2023-11-10T20:16:41.814Z,27.50
2023-11-10T20:19:13.147Z,27.50
2023-11-10T20:21:43.119Z,27.50
2023-11-10T20:24:13.278Z,27.20
2023-11-10T20:26:43.525Z,26.90
2023-11-10T20:29:13.391Z,26.80
2023-11-10T20:31:44.047Z,26.80
2023-11-10T20:34:14.369Z,26.70
2023-11-10T20:36:44.121Z,27.00
2023-11-10T20:39:14.735Z,27.10
2023-11-10T20:41:44.954Z,27.20
2023-11-10T20:44:14.941Z,27.30
2023-11-10T20:46:47.644Z,27.50
2023-11-10T20:49:20.577Z,27.40
2023-11-10T20:51:52.365Z,27.40
2023-11-10T20:54:22.211Z,27.40
2023-11-10T20:56:52.174Z,27.00
2023-11-10T20:59:21.917Z,26.90
2023-11-10T21:01:51.988Z,26.90
2023-11-10T21:04:23.296Z,27.10
2023-11-10T21:06:53.469Z,27.20
2023-11-10T21:09:25.450Z,27.30
2023-11-10T21:11:55.605Z,27.40
2023-11-10T21:14:25.400Z,27.40
2023-11-10T21:16:55.332Z,27.40
2023-11-10T21:19:25.062Z,27.30
2023-11-10T21:21:55.236Z,27.30
2023-11-10T21:24:25.089Z,27.40
2023-11-10T21:26:55.032Z,27.40
2023-11-10T21:29:24.777Z,27.30
2023-11-10T21:31:55.164Z,27.40
2023-11-10T21:34:25.014Z,27.30
2023-11-10T21:36:54.998Z,27.30
2023-11-10T21:39:24.773Z,27.10
2023-11-10T21:41:56.897Z,27.20
2023-11-10T21:44:27.477Z,27.10
2023-11-10T21:46:59.239Z,27.10
2023-11-10T21:49:32.093Z,27.20
2023-11-10T21:52:02.551Z,27.10
2023-11-10T21:54:34.352Z,27.00
2023-11-10T21:57:04.660Z,26.90
2023-11-10T21:59:34.469Z,27.00
2023-11-10T22:02:04.803Z,27.10
2023-11-10T22:04:34.655Z,27.10
2023-11-10T22:07:05.049Z,27.00
2023-11-10T22:09:34.857Z,26.90
2023-11-10T22:12:05.107Z,26.90
2023-11-10T22:14:34.927Z,26.90
2023-11-10T22:17:04.905Z,26.80
2023-11-10T22:19:34.718Z,26.70
2023-11-10T22:22:05.780Z,26.90
2023-11-10T22:24:36.112Z,26.90
2023-11-10T22:27:06.743Z,26.90
2023-11-10T22:29:36.644Z,26.90
2023-11-10T22:32:07.006Z,26.90
2023-11-10T22:34:37.023Z,27.00
2023-11-10T22:37:06.800Z,27.00
2023-11-10T22:39:36.763Z,27.00
2023-11-10T22:42:07.136Z,26.90
2023-11-10T22:44:38.282Z,27.00
2023-11-10T22:47:08.880Z,27.00
2023-11-10T22:49:39.049Z,26.80
2023-11-10T22:52:08.803Z,26.70
2023-11-10T22:54:40.084Z,26.70
2023-11-10T22:57:10.376Z,26.70
2023-11-10T22:59:40.798Z,26.60
2023-11-10T23:02:13.904Z,26.70
2023-11-10T23:04:44.963Z,26.80
2023-11-10T23:07:15.151Z,26.90
2023-11-10T23:09:47.127Z,26.80
2023-11-10T23:12:17.597Z,26.80
2023-11-10T23:14:48.351Z,26.70
2023-11-10T23:17:19.638Z,26.70
2023-11-10T23:19:52.860Z,26.70
2023-11-10T23:22:22.967Z,26.70
2023-11-10T23:24:52.685Z,26.70
2023-11-10T23:27:22.594Z,26.80
2023-11-10T23:29:52.833Z,26.80
2023-11-10T23:32:24.682Z,26.90
2023-11-10T23:34:55.305Z,26.90
2023-11-10T23:37:25.085Z,26.70
2023-11-10T23:39:55.101Z,26.70
2023-11-10T23:42:24.991Z,26.70
2023-11-10T23:44:55.553Z,26.60
2023-11-10T23:47:25.249Z,26.60
2023-11-10T23:49:56.489Z,26.70
2023-11-10T23:52:26.428Z,26.80
2023-11-10T23:54:56.427Z,26.90
2023-11-10T23:57:26.456Z,26.90
2023-11-10T23:59:56.204Z,26.90
